Time;durP1;ratioP1;P1;durP2;ratioP2;P2;SDS_P1;SDS_P2;PMS_P1;PMS_P2;Temp;Humidity;BMP_temperature;BMP_pressure;BME280_temperature;BME280_humidity;BME280_pressure;Samples;Min_cycle;Max_cycle;Signal;HPM_P1;HPM_P2
2022/11/30 00:00:52;;;;;;;1999.90;999.90;;;;;;;;;;5058491;28;20235;-75
2022/11/30 00:03:19;;;;;;;1999.90;999.90;;;;;;;;;;5060720;28;20270;-79
2022/11/30 00:05:48;;;;;;;1999.90;999.90;;;;;;;;;;5058307;28;20228;-76
2022/11/30 00:08:16;;;;;;;1999.90;999.90;;;;;;;;;;5059022;28;21639;-78
2022/11/30 00:10:43;;;;;;;1999.90;999.90;;;;;;;;;;5063681;28;20236;-78
2022/11/30 00:13:13;;;;;;;1999.90;999.90;;;;;;;;;;5055562;28;20232;-79
2022/11/30 00:15:40;;;;;;;1999.90;999.90;;;;;;;;;;5063206;28;20323;-79
2022/11/30 00:18:09;;;;;;;1999.90;999.90;;;;;;;;;;5064486;28;20224;-81
2022/11/30 00:20:37;;;;;;;1999.90;999.90;;;;;;;;;;5063302;28;20224;-77
2022/11/30 00:23:04;;;;;;;1999.90;999.90;;;;;;;;;;5054269;28;20239;-80
2022/11/30 00:25:32;;;;;;;1999.90;999.90;;;;;;;;;;5035969;28;20232;-77
2022/11/30 00:28:00;;;;;;;1999.90;999.90;;;;;;;;;;5056200;28;20231;-80
2022/11/30 00:30:29;;;;;;;1999.90;999.90;;;;;;;;;;5055467;28;20229;-80
2022/11/30 00:32:57;;;;;;;1999.90;999.90;;;;;;;;;;5067415;28;20362;-77
2022/11/30 00:35:25;;;;;;;1999.90;999.90;;;;;;;;;;5053180;28;20236;-78
2022/11/30 00:37:53;;;;;;;1999.90;999.90;;;;;;;;;;5060599;28;20228;-79
2022/11/30 00:40:21;;;;;;;1999.90;999.90;;;;;;;;;;5055826;28;20285;-81
2022/11/30 00:42:49;;;;;;;1999.90;999.90;;;;;;;;;;5055251;28;20764;-77
2022/11/30 00:45:17;;;;;;;1999.90;999.90;;;;;;;;;;5050817;28;20238;-81
2022/11/30 00:47:46;;;;;;;1999.90;999.90;;;;;;;;;;5060209;28;20227;-78
2022/11/30 00:50:14;;;;;;;1999.90;999.90;;;;;;;;;;5062053;28;20231;-79
2022/11/30 00:52:42;;;;;;;1999.90;999.90;;;;;;;;;;5062022;28;20419;-79
2022/11/30 00:55:10;;;;;;;1999.90;999.90;;;;;;;;;;5043959;28;20239;-80
2022/11/30 00:57:37;;;;;;;1999.90;999.90;;;;;;;;;;5056319;28;20242;-77
2022/11/30 01:00:06;;;;;;;1999.90;999.90;;;;;;;;;;5062083;28;20236;-77
2022/11/30 01:02:34;;;;;;;1999.90;999.90;;;;;;;;;;5060875;28;20302;-78
2022/11/30 01:05:03;;;;;;;1999.90;999.90;;;;;;;;;;5064606;28;20272;-78
2022/11/30 01:07:31;;;;;;;1999.90;999.90;;;;;;;;;;5057802;28;20239;-79
2022/11/30 01:09:59;;;;;;;1999.90;999.90;;;;;;;;;;5089898;27;20285;-79
2022/11/30 01:12:27;;;;;;;1999.90;999.90;;;;;;;;;;5061039;28;20224;-82
2022/11/30 01:14:55;;;;;;;1999.90;999.90;;;;;;;;;;5051276;28;20243;-78
2022/11/30 01:17:22;;;;;;;1999.90;999.90;;;;;;;;;;5064402;28;20228;-77
2022/11/30 01:19:50;;;;;;;1999.90;999.90;;;;;;;;;;5053575;28;20282;-83
2022/11/30 01:22:19;;;;;;;1999.90;999.90;;;;;;;;;;5053806;28;20243;-77
2022/11/30 01:24:47;;;;;;;1999.90;999.90;;;;;;;;;;5070696;28;20235;-80
2022/11/30 01:27:15;;;;;;;1999.90;999.90;;;;;;;;;;5063693;28;20231;-78
2022/11/30 01:29:43;;;;;;;1999.90;999.90;;;;;;;;;;5055244;28;20295;-78
2022/11/30 01:32:11;;;;;;;1999.90;999.90;;;;;;;;;;5053528;28;20277;-78
2022/11/30 01:34:39;;;;;;;1999.90;999.90;;;;;;;;;;5052727;28;20233;-79
2022/11/30 01:37:08;;;;;;;1999.90;999.90;;;;;;;;;;5057975;28;20239;-81
2022/11/30 01:39:37;;;;;;;1999.90;999.90;;;;;;;;;;5060314;28;20228;-80
2022/11/30 01:42:06;;;;;;;1999.90;999.90;;;;;;;;;;5037944;28;20235;-78
2022/11/30 01:44:47;;;;;;;1999.90;999.90;;;;;;;;;;5053664;28;21137;-80
2022/11/30 01:47:15;;;;;;;1999.90;999.90;;;;;;;;;;5053376;28;20224;-79
2022/11/30 01:49:44;;;;;;;1999.90;999.90;;;;;;;;;;5062871;28;20235;-80
2022/11/30 01:52:13;;;;;;;1999.90;999.90;;;;;;;;;;5055375;28;20399;-80
2022/11/30 01:54:44;;;;;;;1999.90;999.90;;;;;;;;;;5059150;28;20672;-80
2022/11/30 01:57:17;;;;;;;1999.90;999.90;;;;;;;;;;5063908;28;20714;-79
2022/11/30 01:59:44;;;;;;;1999.90;999.90;;;;;;;;;;5061646;28;20228;-80
2022/11/30 02:02:12;;;;;;;1999.90;999.90;;;;;;;;;;5056317;28;20240;-78
2022/11/30 02:04:40;;;;;;;1999.90;999.90;;;;;;;;;;5060272;28;20229;-79
2022/11/30 02:07:08;;;;;;;1999.90;999.90;;;;;;;;;;5061121;28;20283;-78
2022/11/30 02:09:41;;;;;;;1999.90;999.90;;;;;;;;;;5058451;28;20232;-78
2022/11/30 02:12:20;;;;;;;1999.90;999.90;;;;;;;;;;5058219;28;22742;-78
2022/11/30 02:14:49;;;;;;;1999.90;999.90;;;;;;;;;;5056011;28;20239;-78
2022/11/30 02:17:20;;;;;;;1999.90;999.90;;;;;;;;;;5056442;28;20228;-78
2022/11/30 02:19:55;;;;;;;1999.90;999.90;;;;;;;;;;5060740;28;20674;-78
2022/11/30 02:22:29;;;;;;;1999.90;999.90;;;;;;;;;;5054805;28;20241;-77
2022/11/30 02:25:00;;;;;;;1999.90;999.90;;;;;;;;;;5089727;27;20230;-78
2022/11/30 02:27:38;;;;;;;1999.90;999.90;;;;;;;;;;5051951;28;20263;-78
2022/11/30 02:30:09;;;;;;;1999.90;999.90;;;;;;;;;;5056167;28;20235;-80
2022/11/30 02:32:39;;;;;;;1999.90;999.90;;;;;;;;;;5035349;28;20228;-81
2022/11/30 02:35:09;;;;;;;1999.90;999.90;;;;;;;;;;5057175;28;20238;-80
2022/11/30 02:37:38;;;;;;;1999.90;999.90;;;;;;;;;;5054132;28;20232;-76
2022/11/30 02:40:08;;;;;;;1999.90;999.90;;;;;;;;;;5057882;28;20236;-79
2022/11/30 02:42:35;;;;;;;1999.90;999.90;;;;;;;;;;5033818;28;20247;-77
2022/11/30 02:45:04;;;;;;;1999.90;999.90;;;;;;;;;;5052451;28;20232;-78
2022/11/30 02:47:36;;;;;;;1999.90;999.90;;;;;;;;;;5057359;28;20232;-78
2022/11/30 02:50:08;;;;;;;1999.90;999.90;;;;;;;;;;5058078;28;20656;-79
2022/11/30 02:52:36;;;;;;;1999.90;999.90;;;;;;;;;;5054392;28;21413;-81
2022/11/30 02:55:06;;;;;;;1999.90;999.90;;;;;;;;;;5054869;28;20722;-79
2022/11/30 02:57:34;;;;;;;1999.90;999.90;;;;;;;;;;5055064;28;20244;-79
2022/11/30 03:00:02;;;;;;;1999.90;999.90;;;;;;;;;;5055706;28;20274;-79
2022/11/30 03:02:30;;;;;;;1999.90;999.90;;;;;;;;;;5055656;28;20243;-78
2022/11/30 03:04:59;;;;;;;1999.90;999.90;;;;;;;;;;5063130;27;20241;-80
2022/11/30 03:07:29;;;;;;;1999.90;999.90;;;;;;;;;;5051107;28;20235;-79
2022/11/30 03:09:57;;;;;;;1999.90;999.90;;;;;;;;;;5053545;28;20220;-81
2022/11/30 03:12:24;;;;;;;1999.90;999.90;;;;;;;;;;5059946;28;20903;-80
2022/11/30 03:14:52;;;;;;;1999.90;999.90;;;;;;;;;;5057122;28;20232;-78
2022/11/30 03:17:20;;;;;;;1999.90;999.90;;;;;;;;;;5086245;27;20234;-77
2022/11/30 03:19:48;;;;;;;1999.90;999.90;;;;;;;;;;5055797;28;20224;-78
2022/11/30 03:22:17;;;;;;;1999.90;999.90;;;;;;;;;;5056326;28;20224;-78
2022/11/30 03:24:45;;;;;;;1999.90;999.90;;;;;;;;;;5073408;28;20228;-80
2022/11/30 03:27:13;;;;;;;1999.90;999.90;;;;;;;;;;5057275;28;20227;-79
2022/11/30 03:29:41;;;;;;;1999.90;999.90;;;;;;;;;;5044825;28;20242;-78
2022/11/30 03:32:09;;;;;;;1999.90;999.90;;;;;;;;;;5055318;28;20216;-76
2022/11/30 03:34:37;;;;;;;1999.90;999.90;;;;;;;;;;5052749;28;20228;-80
2022/11/30 03:37:05;;;;;;;1999.90;999.90;;;;;;;;;;5060117;28;20220;-78
2022/11/30 03:39:34;;;;;;;1999.90;999.90;;;;;;;;;;5053640;28;20307;-78
2022/11/30 03:42:02;;;;;;;1999.90;999.90;;;;;;;;;;5052796;28;22547;-80
2022/11/30 03:44:30;;;;;;;1999.90;999.90;;;;;;;;;;5053967;28;20235;-78
2022/11/30 03:46:57;;;;;;;1999.90;999.90;;;;;;;;;;5055167;28;20236;-81
2022/11/30 03:49:26;;;;;;;1999.90;999.90;;;;;;;;;;5056034;28;20257;-79
2022/11/30 03:51:53;;;;;;;1999.90;999.90;;;;;;;;;;5059590;28;20227;-81
2022/11/30 03:54:21;;;;;;;1999.90;999.90;;;;;;;;;;5059566;28;20235;-80
2022/11/30 03:56:50;;;;;;;1999.90;999.90;;;;;;;;;;5089160;27;20235;-78
2022/11/30 03:59:18;;;;;;;1999.90;999.90;;;;;;;;;;5084609;27;20231;-81
2022/11/30 04:01:46;;;;;;;1999.90;999.90;;;;;;;;;;5056604;28;20229;-79
2022/11/30 04:04:14;;;;;;;1999.90;999.90;;;;;;;;;;5054834;28;20241;-78
2022/11/30 04:06:42;;;;;;;1999.90;999.90;;;;;;;;;;5056636;28;20259;-79
2022/11/30 04:09:10;;;;;;;1999.90;999.90;;;;;;;;;;5056814;28;20262;-80
2022/11/30 04:11:37;;;;;;;1999.90;999.90;;;;;;;;;;5057771;28;20228;-78
2022/11/30 04:14:07;;;;;;;1999.90;999.90;;;;;;;;;;5061074;28;20235;-78
2022/11/30 04:16:35;;;;;;;1999.90;999.90;;;;;;;;;;5054486;28;21008;-81
2022/11/30 04:19:02;;;;;;;1999.90;999.90;;;;;;;;;;5058960;28;20331;-78
2022/11/30 04:21:30;;;;;;;1999.90;999.90;;;;;;;;;;5059603;28;20232;-78
2022/11/30 04:23:58;;;;;;;1999.90;999.90;;;;;;;;;;5063231;28;20769;-77
2022/11/30 04:26:26;;;;;;;1999.90;999.90;;;;;;;;;;5060014;28;20616;-78
2022/11/30 04:28:53;;;;;;;1999.90;999.90;;;;;;;;;;5090774;27;20231;-79
2022/11/30 04:31:23;;;;;;;1999.90;999.90;;;;;;;;;;5059081;28;20227;-79
2022/11/30 04:33:52;;;;;;;1999.90;999.90;;;;;;;;;;5062463;28;20227;-78
2022/11/30 04:36:20;;;;;;;1999.90;999.90;;;;;;;;;;5059619;28;20230;-81
2022/11/30 04:38:48;;;;;;;1999.90;999.90;;;;;;;;;;5055500;28;20702;-79
2022/11/30 04:41:16;;;;;;;1999.90;999.90;;;;;;;;;;5061621;28;20293;-78
2022/11/30 04:43:44;;;;;;;1999.90;999.90;;;;;;;;;;5059281;28;20246;-77
2022/11/30 04:46:12;;;;;;;1999.90;999.90;;;;;;;;;;5063021;28;21885;-79
2022/11/30 04:48:41;;;;;;;1999.90;999.90;;;;;;;;;;5057168;28;20234;-79
2022/11/30 04:51:09;;;;;;;1999.90;999.90;;;;;;;;;;5061353;28;20305;-78
2022/11/30 04:53:37;;;;;;;1999.90;999.90;;;;;;;;;;5061432;28;20237;-80
2022/11/30 04:56:05;;;;;;;1999.90;999.90;;;;;;;;;;5057657;28;20228;-78
2022/11/30 04:58:33;;;;;;;1999.90;999.90;;;;;;;;;;5056951;28;20239;-79
2022/11/30 05:01:01;;;;;;;1999.90;999.90;;;;;;;;;;5055223;28;20442;-81
2022/11/30 05:03:29;;;;;;;1999.90;999.90;;;;;;;;;;5057869;28;21469;-78
2022/11/30 05:05:58;;;;;;;1999.90;999.90;;;;;;;;;;5053339;28;20232;-80
2022/11/30 05:08:26;;;;;;;1999.90;999.90;;;;;;;;;;5034052;28;20658;-79
2022/11/30 05:10:54;;;;;;;1999.90;999.90;;;;;;;;;;5052247;28;20736;-78
2022/11/30 05:13:22;;;;;;;1999.90;999.90;;;;;;;;;;5082546;27;20390;-76
2022/11/30 05:15:52;;;;;;;1999.90;999.90;;;;;;;;;;5084606;27;20236;-77
2022/11/30 05:18:20;;;;;;;1999.90;999.90;;;;;;;;;;5053972;28;21434;-80
2022/11/30 05:20:48;;;;;;;1999.90;999.90;;;;;;;;;;5055131;28;20237;-76
2022/11/30 05:23:18;;;;;;;1999.90;999.90;;;;;;;;;;5054256;28;20227;-78
2022/11/30 05:25:46;;;;;;;1999.90;999.90;;;;;;;;;;5049301;28;20235;-78
2022/11/30 05:28:13;;;;;;;1999.90;999.90;;;;;;;;;;5052641;28;20231;-80
2022/11/30 05:30:42;;;;;;;1999.90;999.90;;;;;;;;;;5055376;28;20235;-81
2022/11/30 05:33:10;;;;;;;1999.90;999.90;;;;;;;;;;5054320;28;20316;-79
2022/11/30 05:35:38;;;;;;;1999.90;999.90;;;;;;;;;;5055682;28;20339;-77
2022/11/30 05:38:06;;;;;;;1999.90;999.90;;;;;;;;;;5058017;28;20243;-78
2022/11/30 05:40:35;;;;;;;1999.90;999.90;;;;;;;;;;5051424;28;20428;-78
2022/11/30 05:43:04;;;;;;;1999.90;999.90;;;;;;;;;;5052867;28;20839;-78
2022/11/30 05:45:32;;;;;;;1999.90;999.90;;;;;;;;;;5037560;28;22419;-77
2022/11/30 05:48:00;;;;;;;1999.90;999.90;;;;;;;;;;5054429;28;20251;-78
2022/11/30 05:50:28;;;;;;;1999.90;999.90;;;;;;;;;;5054847;28;20230;-78
2022/11/30 05:52:56;;;;;;;1999.90;999.90;;;;;;;;;;5057924;28;20344;-77
2022/11/30 05:55:24;;;;;;;1999.90;999.90;;;;;;;;;;5051541;28;22135;-78
2022/11/30 05:57:53;;;;;;;1999.90;999.90;;;;;;;;;;5053631;28;20241;-79
2022/11/30 06:00:22;;;;;;;1999.90;999.90;;;;;;;;;;5044751;28;20231;-77
2022/11/30 06:02:54;;;;;;;1999.90;999.90;;;;;;;;;;5055985;28;20224;-78
2022/11/30 06:05:22;;;;;;;1999.90;999.90;;;;;;;;;;5050850;28;20239;-78
2022/11/30 06:07:50;;;;;;;1999.90;999.90;;;;;;;;;;5050370;28;20410;-79
2022/11/30 06:10:18;;;;;;;1999.90;999.90;;;;;;;;;;5052729;28;20401;-79
2022/11/30 06:12:47;;;;;;;1999.90;999.90;;;;;;;;;;5061074;28;20380;-79
2022/11/30 06:15:17;;;;;;;1999.90;999.90;;;;;;;;;;5054716;28;20401;-78
2022/11/30 06:17:44;;;;;;;1999.90;999.90;;;;;;;;;;5038797;28;20227;-77
2022/11/30 06:20:13;;;;;;;1999.90;999.90;;;;;;;;;;5057032;28;20219;-78
2022/11/30 06:22:41;;;;;;;1999.90;999.90;;;;;;;;;;5061305;28;20659;-77
2022/11/30 06:25:09;;;;;;;1999.90;999.90;;;;;;;;;;5052149;28;20399;-77
2022/11/30 06:27:36;;;;;;;1999.90;999.90;;;;;;;;;;5081158;27;20231;-78
2022/11/30 06:30:05;;;;;;;1999.90;999.90;;;;;;;;;;5054014;28;20240;-77
2022/11/30 06:32:34;;;;;;;1999.90;999.90;;;;;;;;;;5055064;28;21030;-78
2022/11/30 06:35:02;;;;;;;1999.90;999.90;;;;;;;;;;5052357;28;20240;-77
2022/11/30 06:37:33;;;;;;;1999.90;999.90;;;;;;;;;;5059568;28;20737;-79
2022/11/30 06:40:01;;;;;;;1999.90;999.90;;;;;;;;;;5046998;28;20738;-82
2022/11/30 06:42:34;;;;;;;1999.90;999.90;;;;;;;;;;5051910;28;20227;-74
2022/11/30 06:45:02;;;;;;;1999.90;999.90;;;;;;;;;;5064193;28;20904;-77
2022/11/30 06:47:30;;;;;;;1999.90;999.90;;;;;;;;;;5050019;28;20242;-77
2022/11/30 06:49:59;;;;;;;1999.90;999.90;;;;;;;;;;5054362;28;21007;-77
2022/11/30 06:52:29;;;;;;;1999.90;999.90;;;;;;;;;;5048703;28;20418;-76
2022/11/30 06:54:57;;;;;;;1999.90;999.90;;;;;;;;;;5057910;28;20232;-78
2022/11/30 06:57:26;;;;;;;1999.90;999.90;;;;;;;;;;5050970;28;20235;-78
2022/11/30 06:59:55;;;;;;;1999.90;999.90;;;;;;;;;;5052293;28;20223;-78
2022/11/30 07:02:23;;;;;;;1999.90;999.90;;;;;;;;;;5055564;28;20235;-77
2022/11/30 07:04:50;;;;;;;1999.90;999.90;;;;;;;;;;5060413;28;20305;-78
2022/11/30 07:07:19;;;;;;;1999.90;999.90;;;;;;;;;;5053396;28;20227;-78
2022/11/30 07:09:47;;;;;;;1999.90;999.90;;;;;;;;;;5048856;28;20926;-80
2022/11/30 07:12:15;;;;;;;1999.90;999.90;;;;;;;;;;5051475;28;20242;-78
2022/11/30 07:14:43;;;;;;;1999.90;999.90;;;;;;;;;;5049011;28;20807;-79
2022/11/30 07:17:11;;;;;;;1999.90;999.90;;;;;;;;;;5055376;28;20305;-78
2022/11/30 07:19:39;;;;;;;1999.90;999.90;;;;;;;;;;5060301;28;20232;-77
2022/11/30 07:22:07;;;;;;;1999.90;999.90;;;;;;;;;;5057445;28;20232;-77
2022/11/30 07:27:21;;;;;;;1999.90;999.90;;;;;;;;;;5056725;28;20242;-72
2022/11/30 07:29:50;;;;;;;1999.90;999.90;;;;;;;;;;5052462;28;20667;-73
2022/11/30 07:32:18;;;;;;;1999.90;999.90;;;;;;;;;;5046175;28;20835;-72
2022/11/30 07:34:46;;;;;;;1999.90;999.90;;;;;;;;;;5052945;28;20487;-73
2022/11/30 07:37:14;;;;;;;1999.90;999.90;;;;;;;;;;5051895;28;20302;-75
2022/11/30 07:39:43;;;;;;;1999.90;999.90;;;;;;;;;;5051469;28;20224;-76
2022/11/30 07:42:11;;;;;;;1999.90;999.90;;;;;;;;;;5050642;28;20236;-76
2022/11/30 07:44:40;;;;;;;1999.90;999.90;;;;;;;;;;5049742;28;20239;-76
2022/11/30 07:47:08;;;;;;;1999.90;999.90;;;;;;;;;;5057779;28;20255;-76
2022/11/30 07:49:36;;;;;;;1999.90;999.90;;;;;;;;;;5079139;27;20240;-76
2022/11/30 07:52:04;;;;;;;1999.90;999.90;;;;;;;;;;5046363;28;20243;-76
2022/11/30 07:54:32;;;;;;;1999.90;999.90;;;;;;;;;;5036913;28;20239;-78
2022/11/30 07:57:01;;;;;;;1999.90;999.90;;;;;;;;;;5052190;28;20224;-75
2022/11/30 07:59:29;;;;;;;1999.90;999.90;;;;;;;;;;5065078;28;20733;-75
2022/11/30 08:01:56;;;;;;;1999.90;999.90;;;;;;;;;;5059436;28;20227;-75
2022/11/30 08:04:25;;;;;;;1999.90;999.90;;;;;;;;;;5051524;28;20239;-75
2022/11/30 08:06:53;;;;;;;1999.90;999.90;;;;;;;;;;5047681;28;20398;-76
2022/11/30 08:09:21;;;;;;;1999.90;999.90;;;;;;;;;;5086592;27;20289;-76
2022/11/30 08:11:49;;;;;;;1999.90;999.90;;;;;;;;;;5046977;28;20319;-74
2022/11/30 08:14:18;;;;;;;1999.90;999.90;;;;;;;;;;5057138;28;20231;-75
2022/11/30 08:16:47;;;;;;;1999.90;999.90;;;;;;;;;;5060056;28;20229;-75
2022/11/30 08:19:16;;;;;;;1999.90;999.90;;;;;;;;;;5050085;28;20740;-75
2022/11/30 08:21:43;;;;;;;1999.90;999.90;;;;;;;;;;5057745;28;20228;-76
2022/11/30 08:24:12;;;;;;;1999.90;999.90;;;;;;;;;;5059020;28;20232;-76
2022/11/30 08:26:39;;;;;;;1999.90;999.90;;;;;;;;;;5057619;28;20260;-76
2022/11/30 08:29:09;;;;;;;1999.90;999.90;;;;;;;;;;5087282;27;20271;-76
2022/11/30 08:31:38;;;;;;;1999.90;999.90;;;;;;;;;;5052804;28;21147;-75
2022/11/30 08:34:07;;;;;;;1999.90;999.90;;;;;;;;;;5057864;28;20706;-75
2022/11/30 08:36:35;;;;;;;1999.90;999.90;;;;;;;;;;5057366;28;20318;-76
2022/11/30 08:39:04;;;;;;;1999.90;999.90;;;;;;;;;;5050448;28;20248;-75
2022/11/30 08:41:32;;;;;;;1999.90;999.90;;;;;;;;;;5059566;28;20611;-76
2022/11/30 08:44:00;;;;;;;1999.90;999.90;;;;;;;;;;5054805;28;20237;-76
2022/11/30 08:46:28;;;;;;;1999.90;999.90;;;;;;;;;;5050583;28;20270;-75
2022/11/30 08:49:18;;;;;;;1999.90;999.90;;;;;;;;;;5080792;27;20721;-76
2022/11/30 08:51:49;;;;;;;1999.90;999.90;;;;;;;;;;5054598;28;20232;-76
2022/11/30 08:54:38;;;;;;;1999.90;999.90;;;;;;;;;;5037427;28;20234;-75
2022/11/30 08:57:06;;;;;;;1999.90;999.90;;;;;;;;;;5056396;28;20548;-75
2022/11/30 08:59:33;;;;;;;1999.90;999.90;;;;;;;;;;5068783;28;20311;-75
2022/11/30 09:02:01;;;;;;;1999.90;999.90;;;;;;;;;;5049228;28;20231;-76
2022/11/30 09:04:30;;;;;;;1999.90;999.90;;;;;;;;;;5047780;28;20887;-76
2022/11/30 09:06:59;;;;;;;1999.90;999.90;;;;;;;;;;5053419;28;20300;-75
2022/11/30 09:09:27;;;;;;;1999.90;999.90;;;;;;;;;;5051174;28;20471;-75
2022/11/30 09:11:55;;;;;;;1999.90;999.90;;;;;;;;;;5050849;28;21330;-74
2022/11/30 09:14:23;;;;;;;1999.90;999.90;;;;;;;;;;5055605;28;20446;-75
2022/11/30 09:16:52;;;;;;;1999.90;999.90;;;;;;;;;;5054921;28;20234;-74
2022/11/30 09:19:20;;;;;;;1999.90;999.90;;;;;;;;;;5057635;28;20227;-75
2022/11/30 09:21:49;;;;;;;1999.90;999.90;;;;;;;;;;5053353;28;20232;-75
2022/11/30 09:24:19;;;;;;;1999.90;999.90;;;;;;;;;;5065771;28;20432;-75
2022/11/30 09:26:47;;;;;;;1999.90;999.90;;;;;;;;;;5056520;28;20488;-76
2022/11/30 09:29:15;;;;;;;1999.90;999.90;;;;;;;;;;5052729;28;20398;-75
2022/11/30 09:31:43;;;;;;;1999.90;999.90;;;;;;;;;;5051863;28;21609;-76
2022/11/30 09:34:11;;;;;;;1999.90;999.90;;;;;;;;;;5056910;28;20225;-75
2022/11/30 09:36:39;;;;;;;1999.90;999.90;;;;;;;;;;5052873;28;21167;-75
2022/11/30 09:39:11;;;;;;;1999.90;999.90;;;;;;;;;;5055585;28;20237;-75
2022/11/30 09:41:58;;;;;;;1999.90;999.90;;;;;;;;;;5039767;28;20229;-75
2022/11/30 09:44:32;;;;;;;1999.90;999.90;;;;;;;;;;5053997;28;20414;-75
2022/11/30 09:47:04;;;;;;;1999.90;999.90;;;;;;;;;;5052453;28;20244;-74
2022/11/30 09:49:34;;;;;;;1999.90;999.90;;;;;;;;;;5037958;28;20225;-74
2022/11/30 09:52:03;;;;;;;1999.90;999.90;;;;;;;;;;5052905;28;21963;-75
2022/11/30 09:54:36;;;;;;;1999.90;999.90;;;;;;;;;;5053122;28;20236;-76
2022/11/30 09:57:05;;;;;;;1999.90;999.90;;;;;;;;;;5055582;28;20237;-75
2022/11/30 09:59:34;;;;;;;1999.90;999.90;;;;;;;;;;5058460;28;20734;-75
2022/11/30 10:02:10;;;;;;;1999.90;999.90;;;;;;;;;;5057665;28;20235;-77
2022/11/30 10:04:38;;;;;;;1999.90;999.90;;;;;;;;;;5090968;27;20310;-75
2022/11/30 10:07:09;;;;;;;1999.90;999.90;;;;;;;;;;5057106;28;20236;-76
2022/11/30 10:09:44;;;;;;;1999.90;999.90;;;;;;;;;;5058131;28;20636;-76
2022/11/30 10:12:35;;;;;;;1999.90;999.90;;;;;;;;;;5055141;28;20467;-76
2022/11/30 10:15:09;;;;;;;1999.90;999.90;;;;;;;;;;5055440;28;20474;-76
2022/11/30 10:17:41;;;;;;;1999.90;999.90;;;;;;;;;;5057655;28;20969;-77
2022/11/30 10:20:22;;;;;;;1999.90;999.90;;;;;;;;;;5057785;28;20477;-78
2022/11/30 10:22:58;;;;;;;1999.90;999.90;;;;;;;;;;5056211;28;20230;-76
2022/11/30 10:25:29;;;;;;;1999.90;999.90;;;;;;;;;;5051778;28;20227;-76
2022/11/30 10:28:00;;;;;;;1999.90;999.90;;;;;;;;;;5055091;28;20255;-76
2022/11/30 10:30:48;;;;;;;1999.90;999.90;;;;;;;;;;5080723;27;20232;-75
2022/11/30 10:33:18;;;;;;;1999.90;999.90;;;;;;;;;;5057379;28;20297;-77
2022/11/30 10:35:48;;;;;;;1999.90;999.90;;;;;;;;;;5057961;28;20220;-76
2022/11/30 10:38:19;;;;;;;1999.90;999.90;;;;;;;;;;5059094;28;20224;-77
2022/11/30 10:40:51;;;;;;;1999.90;999.90;;;;;;;;;;5050724;28;20402;-75
2022/11/30 10:43:21;;;;;;;1999.90;999.90;;;;;;;;;;5049051;28;20477;-75
2022/11/30 10:45:50;;;;;;;1999.90;999.90;;;;;;;;;;5049181;28;20236;-76
2022/11/30 10:48:21;;;;;;;1999.90;999.90;;;;;;;;;;5050568;28;20489;-77
2022/11/30 10:50:49;;;;;;;1999.90;999.90;;;;;;;;;;5052427;28;20224;-77
2022/11/30 10:53:17;;;;;;;1999.90;999.90;;;;;;;;;;5036112;28;20220;-77
2022/11/30 10:55:49;;;;;;;1999.90;999.90;;;;;;;;;;5052998;28;20684;-77
2022/11/30 10:58:21;;;;;;;1999.90;999.90;;;;;;;;;;5032671;28;20220;-77
2022/11/30 11:00:52;;;;;;;1999.90;999.90;;;;;;;;;;5053359;28;20529;-76
2022/11/30 11:03:23;;;;;;;1999.90;999.90;;;;;;;;;;5038882;28;20840;-76
2022/11/30 11:06:02;;;;;;;1999.90;999.90;;;;;;;;;;5050654;28;20397;-77
2022/11/30 11:08:30;;;;;;;1999.90;999.90;;;;;;;;;;5054708;28;20412;-76
2022/11/30 11:10:58;;;;;;;1999.90;999.90;;;;;;;;;;5073698;28;20234;-77
2022/11/30 11:13:37;;;;;;;1999.90;999.90;;;;;;;;;;5050514;28;20484;-77
2022/11/30 11:16:07;;;;;;;1999.90;999.90;;;;;;;;;;5079861;27;20399;-76
2022/11/30 11:18:35;;;;;;;1999.90;999.90;;;;;;;;;;5051581;28;20322;-77
2022/11/30 11:21:04;;;;;;;1999.90;999.90;;;;;;;;;;5058042;28;20238;-77
2022/11/30 11:23:35;;;;;;;1999.90;999.90;;;;;;;;;;5053959;28;20338;-76
2022/11/30 11:26:03;;;;;;;1999.90;999.90;;;;;;;;;;5052168;28;20308;-77
2022/11/30 11:28:31;;;;;;;1999.90;999.90;;;;;;;;;;5058066;28;20821;-77
2022/11/30 11:31:14;;;;;;;1999.90;999.90;;;;;;;;;;5058483;28;20327;-77
2022/11/30 11:33:49;;;;;;;1999.90;999.90;;;;;;;;;;5087811;27;20232;-77
2022/11/30 11:36:24;;;;;;;1999.90;999.90;;;;;;;;;;5056975;28;20226;-76
2022/11/30 11:38:51;;;;;;;1999.90;999.90;;;;;;;;;;5087323;27;20607;-77
2022/11/30 11:41:21;;;;;;;1999.90;999.90;;;;;;;;;;5038639;28;20413;-77
2022/11/30 11:43:58;;;;;;;1999.90;999.90;;;;;;;;;;5055035;28;20483;-77
2022/11/30 11:46:27;;;;;;;1999.90;999.90;;;;;;;;;;5068196;28;20912;-77
2022/11/30 11:48:57;;;;;;;1999.90;999.90;;;;;;;;;;5074206;27;20475;-76
2022/11/30 11:51:29;;;;;;;1999.90;999.90;;;;;;;;;;5050021;28;20398;-77
2022/11/30 11:53:58;;;;;;;1999.90;999.90;;;;;;;;;;5049403;28;20411;-76
2022/11/30 11:56:28;;;;;;;1999.90;999.90;;;;;;;;;;5046907;28;20422;-76
2022/11/30 11:58:57;;;;;;;1999.90;999.90;;;;;;;;;;5052489;28;21196;-76
2022/11/30 12:01:35;;;;;;;1999.90;999.90;;;;;;;;;;5055359;28;20391;-77
2022/11/30 12:04:22;;;;;;;1999.90;999.90;;;;;;;;;;5051787;28;20526;-77
2022/11/30 12:06:51;;;;;;;1999.90;999.90;;;;;;;;;;5050570;28;20306;-76
2022/11/30 12:09:22;;;;;;;1999.90;999.90;;;;;;;;;;5052937;28;20232;-77
2022/11/30 12:11:50;;;;;;;1999.90;999.90;;;;;;;;;;5052798;28;20410;-77
2022/11/30 12:14:18;;;;;;;1999.90;999.90;;;;;;;;;;5053564;28;20913;-78
2022/11/30 12:16:56;;;;;;;1999.90;999.90;;;;;;;;;;5039643;28;20554;-77
2022/11/30 12:19:27;;;;;;;1999.90;999.90;;;;;;;;;;5057988;28;20403;-77
2022/11/30 12:21:59;;;;;;;1999.90;999.90;;;;;;;;;;5056920;28;20967;-76
2022/11/30 12:24:42;;;;;;;1999.90;999.90;;;;;;;;;;5053908;28;20395;-78
2022/11/30 12:27:15;;;;;;;1999.90;999.90;;;;;;;;;;5046999;28;20961;-77
2022/11/30 12:29:48;;;;;;;1999.90;999.90;;;;;;;;;;5050991;28;20421;-77
2022/11/30 12:32:24;;;;;;;1999.90;999.90;;;;;;;;;;5061530;28;21290;-77
2022/11/30 12:35:10;;;;;;;1999.90;999.90;;;;;;;;;;5045432;28;20400;-77
2022/11/30 12:37:42;;;;;;;1999.90;999.90;;;;;;;;;;5058602;28;20387;-77
2022/11/30 12:40:20;;;;;;;1999.90;999.90;;;;;;;;;;5054205;28;20398;-77
2022/11/30 12:42:56;;;;;;;1999.90;999.90;;;;;;;;;;5060654;28;20440;-77
2022/11/30 12:45:28;;;;;;;1999.90;999.90;;;;;;;;;;5059287;28;20487;-77
2022/11/30 12:48:00;;;;;;;1999.90;999.90;;;;;;;;;;5040723;28;20496;-76
2022/11/30 12:50:33;;;;;;;1999.90;999.90;;;;;;;;;;5045477;28;20880;-77
2022/11/30 12:53:06;;;;;;;1999.90;999.90;;;;;;;;;;5054226;28;20388;-78
2022/11/30 12:55:36;;;;;;;1999.90;999.90;;;;;;;;;;5050822;28;20493;-77
2022/11/30 12:58:07;;;;;;;1999.90;999.90;;;;;;;;;;5047401;28;20418;-77
2022/11/30 13:00:39;;;;;;;1999.90;999.90;;;;;;;;;;5048674;28;20486;-76
2022/11/30 13:03:26;;;;;;;1999.90;999.90;;;;;;;;;;5047032;28;20387;-77
2022/11/30 13:05:57;;;;;;;1999.90;999.90;;;;;;;;;;5049568;28;20412;-75
2022/11/30 13:08:26;;;;;;;1999.90;999.90;;;;;;;;;;5047780;28;20410;-77
2022/11/30 13:10:56;;;;;;;1999.90;999.90;;;;;;;;;;5047471;28;20400;-76
2022/11/30 13:13:25;;;;;;;1999.90;999.90;;;;;;;;;;5080848;27;20399;-77
2022/11/30 13:15:53;;;;;;;1999.90;999.90;;;;;;;;;;5078131;27;22227;-76
2022/11/30 13:18:23;;;;;;;1999.90;999.90;;;;;;;;;;5056316;28;20526;-77
2022/11/30 13:20:53;;;;;;;1999.90;999.90;;;;;;;;;;5062879;28;20228;-76
2022/11/30 13:23:30;;;;;;;1999.90;999.90;;;;;;;;;;5052904;28;20594;-78
2022/11/30 13:26:01;;;;;;;1999.90;999.90;;;;;;;;;;5060198;28;20750;-79
2022/11/30 13:28:53;;;;;;;1999.90;999.90;;;;;;;;;;5058341;28;20359;-77
2022/11/30 13:31:23;;;;;;;1999.90;999.90;;;;;;;;;;5085555;27;20285;-77
2022/11/30 13:33:58;;;;;;;1999.90;999.90;;;;;;;;;;5081777;27;20282;-78
2022/11/30 13:36:30;;;;;;;1999.90;999.90;;;;;;;;;;5055737;28;20235;-76
2022/11/30 13:39:24;;;;;;;1999.90;999.90;;;;;;;;;;5060412;28;21764;-76
2022/11/30 13:42:07;;;;;;;1999.90;999.90;;;;;;;;;;5017578;28;20483;-77
2022/11/30 13:44:36;;;;;;;1999.90;999.90;;;;;;;;;;5056023;28;20401;-77
2022/11/30 13:47:05;;;;;;;1999.90;999.90;;;;;;;;;;5056320;28;20412;-76
2022/11/30 13:49:35;;;;;;;1999.90;999.90;;;;;;;;;;5058641;28;20892;-77
2022/11/30 13:52:03;;;;;;;1999.90;999.90;;;;;;;;;;5053437;28;20410;-76
2022/11/30 13:54:53;;;;;;;1999.90;999.90;;;;;;;;;;5056472;28;20390;-77
2022/11/30 13:57:40;;;;;;;1999.90;999.90;;;;;;;;;;5056484;28;20397;-76
2022/11/30 14:00:24;;;;;;;1999.90;999.90;;;;;;;;;;5055690;28;21092;-76